sensor_id;sensor_type;location;lat;lon;timestamp;pressure;altitude;pressure_sealevel;temperature;humidity
70217;BME280;65567;55.684;37.570;2023-07-20T00:02:10;97784.63;;;17.76;55.41
70217;BME280;65567;55.684;37.570;2023-07-20T00:04:35;97783.47;;;17.71;55.39
70217;BME280;65567;55.684;37.570;2023-07-20T00:07:00;97783.31;;;17.72;55.38
70217;BME280;65567;55.684;37.570;2023-07-20T00:09:27;97774.03;;;17.68;55.64
70217;BME280;65567;55.684;37.570;2023-07-20T00:11:52;97783.44;;;17.62;55.78
70217;BME280;65567;55.684;37.570;2023-07-20T00:14:18;97789.81;;;17.51;56.30
70217;BME280;65567;55.684;37.570;2023-07-20T00:16:49;97791.84;;;17.58;55.95
70217;BME280;65567;55.684;37.570;2023-07-20T00:19:30;97796.00;;;17.60;55.85
70217;BME280;65567;55.684;37.570;2023-07-20T00:21:57;97786.22;;;17.61;55.83
70217;BME280;65567;55.684;37.570;2023-07-20T00:24:23;97772.66;;;17.56;55.61
70217;BME280;65567;55.684;37.570;2023-07-20T00:26:48;97794.66;;;17.56;55.79
70217;BME280;65567;55.684;37.570;2023-07-20T00:29:14;97801.44;;;17.50;56.00
70217;BME280;65567;55.684;37.570;2023-07-20T00:31:40;97794.41;;;17.41;55.98
70217;BME280;65567;55.684;37.570;2023-07-20T00:34:05;97801.34;;;17.42;56.41
70217;BME280;65567;55.684;37.570;2023-07-20T00:36:31;97796.38;;;17.39;56.26
70217;BME280;65567;55.684;37.570;2023-07-20T00:38:57;97796.31;;;17.31;56.51
70217;BME280;65567;55.684;37.570;2023-07-20T00:41:22;97785.72;;;17.31;56.42
70217;BME280;65567;55.684;37.570;2023-07-20T00:43:48;97792.41;;;17.35;56.44
70217;BME280;65567;55.684;37.570;2023-07-20T00:46:13;97803.00;;;17.35;56.67
70217;BME280;65567;55.684;37.570;2023-07-20T00:48:40;97804.63;;;17.36;56.52
70217;BME280;65567;55.684;37.570;2023-07-20T00:51:06;97783.97;;;17.40;56.37
70217;BME280;65567;55.684;37.570;2023-07-20T00:53:32;97802.34;;;17.41;56.23
70217;BME280;65567;55.684;37.570;2023-07-20T00:55:57;97796.56;;;17.38;56.43
70217;BME280;65567;55.684;37.570;2023-07-20T00:58:23;97794.69;;;17.30;56.47
70217;BME280;65567;55.684;37.570;2023-07-20T01:00:49;97789.31;;;17.22;56.76
70217;BME280;65567;55.684;37.570;2023-07-20T01:03:15;97793.63;;;17.23;56.71
70217;BME280;65567;55.684;37.570;2023-07-20T01:06:04;97796.66;;;17.28;56.91
70217;BME280;65567;55.684;37.570;2023-07-20T01:08:46;97799.78;;;17.23;56.76
70217;BME280;65567;55.684;37.570;2023-07-20T01:11:17;97812.00;;;17.24;57.02
70217;BME280;65567;55.684;37.570;2023-07-20T01:13:46;97802.88;;;17.18;57.08
70217;BME280;65567;55.684;37.570;2023-07-20T01:16:12;97810.44;;;17.13;57.13
70217;BME280;65567;55.684;37.570;2023-07-20T01:18:37;97808.50;;;17.15;57.24
70217;BME280;65567;55.684;37.570;2023-07-20T01:21:09;97802.06;;;17.18;57.16
70217;BME280;65567;55.684;37.570;2023-07-20T01:26:38;97795.19;;;17.07;57.43
70217;BME280;65567;55.684;37.570;2023-07-20T01:31:57;97799.44;;;17.00;57.66
70217;BME280;65567;55.684;37.570;2023-07-20T01:34:24;97793.84;;;17.03;57.72
70217;BME280;65567;55.684;37.570;2023-07-20T01:36:52;97805.97;;;17.14;57.59
70217;BME280;65567;55.684;37.570;2023-07-20T01:39:19;97817.09;;;17.17;57.44
70217;BME280;65567;55.684;37.570;2023-07-20T01:41:46;97806.88;;;17.23;57.45
70217;BME280;65567;55.684;37.570;2023-07-20T01:44:12;97804.94;;;17.33;57.04
70217;BME280;65567;55.684;37.570;2023-07-20T01:46:38;97808.00;;;17.46;56.99
70217;BME280;65567;55.684;37.570;2023-07-20T01:49:03;97788.38;;;17.57;56.79
70217;BME280;65567;55.684;37.570;2023-07-20T01:51:29;97806.34;;;17.80;56.35
70217;BME280;65567;55.684;37.570;2023-07-20T01:53:54;97803.63;;;17.98;56.03
70217;BME280;65567;55.684;37.570;2023-07-20T01:56:20;97806.34;;;18.23;55.36
70217;BME280;65567;55.684;37.570;2023-07-20T01:58:45;97804.91;;;18.45;54.80
70217;BME280;65567;55.684;37.570;2023-07-20T02:01:11;97811.72;;;18.72;54.15
70217;BME280;65567;55.684;37.570;2023-07-20T02:03:36;97810.75;;;18.98;53.58
70217;BME280;65567;55.684;37.570;2023-07-20T02:06:02;97804.75;;;19.21;52.88
70217;BME280;65567;55.684;37.570;2023-07-20T02:08:27;97813.03;;;19.42;52.29
70217;BME280;65567;55.684;37.570;2023-07-20T02:10:52;97790.44;;;19.55;51.97
70217;BME280;65567;55.684;37.570;2023-07-20T02:13:18;97797.00;;;19.84;51.38
70217;BME280;65567;55.684;37.570;2023-07-20T02:15:44;97791.19;;;20.11;50.63
70217;BME280;65567;55.684;37.570;2023-07-20T02:18:09;97800.34;;;20.40;50.14
70217;BME280;65567;55.684;37.570;2023-07-20T02:20:35;97803.16;;;20.70;49.45
70217;BME280;65567;55.684;37.570;2023-07-20T02:23:01;97809.94;;;20.96;48.52
70217;BME280;65567;55.684;37.570;2023-07-20T02:25:27;97809.91;;;21.19;48.07
70217;BME280;65567;55.684;37.570;2023-07-20T02:27:52;97814.78;;;21.45;47.29
70217;BME280;65567;55.684;37.570;2023-07-20T02:30:18;97813.38;;;21.58;46.91
70217;BME280;65567;55.684;37.570;2023-07-20T02:32:43;97806.19;;;21.73;46.40
70217;BME280;65567;55.684;37.570;2023-07-20T02:35:16;97800.09;;;21.94;45.91
70217;BME280;65567;55.684;37.570;2023-07-20T02:37:42;97805.94;;;22.20;45.25
70217;BME280;65567;55.684;37.570;2023-07-20T02:40:07;97802.31;;;22.42;44.87
70217;BME280;65567;55.684;37.570;2023-07-20T02:42:34;97803.09;;;22.58;44.17
70217;BME280;65567;55.684;37.570;2023-07-20T02:45:01;97810.97;;;22.88;44.10
70217;BME280;65567;55.684;37.570;2023-07-20T02:47:26;97822.41;;;23.03;43.34
70217;BME280;65567;55.684;37.570;2023-07-20T02:49:51;97817.94;;;23.10;43.02
70217;BME280;65567;55.684;37.570;2023-07-20T02:52:17;97820.78;;;23.31;42.76
70217;BME280;65567;55.684;37.570;2023-07-20T02:54:42;97823.66;;;23.64;42.15
70217;BME280;65567;55.684;37.570;2023-07-20T02:57:08;97825.09;;;23.95;41.31
70217;BME280;65567;55.684;37.570;2023-07-20T02:59:33;97818.78;;;24.16;40.80
70217;BME280;65567;55.684;37.570;2023-07-20T03:01:59;97824.66;;;24.33;40.20
70217;BME280;65567;55.684;37.570;2023-07-20T03:04:27;97827.34;;;24.47;40.09
70217;BME280;65567;55.684;37.570;2023-07-20T03:06:53;97823.28;;;24.64;39.75
70217;BME280;65567;55.684;37.570;2023-07-20T03:09:19;97830.72;;;24.76;39.25
70217;BME280;65567;55.684;37.570;2023-07-20T03:11:44;97837.75;;;24.77;39.33
70217;BME280;65567;55.684;37.570;2023-07-20T03:14:10;97830.50;;;24.84;38.86
70217;BME280;65567;55.684;37.570;2023-07-20T03:16:36;97825.78;;;24.99;38.88
70217;BME280;65567;55.684;37.570;2023-07-20T03:19:02;97823.75;;;25.08;38.46
70217;BME280;65567;55.684;37.570;2023-07-20T03:21:28;97828.25;;;25.34;38.39
70217;BME280;65567;55.684;37.570;2023-07-20T03:23:54;97836.91;;;25.63;38.01
70217;BME280;65567;55.684;37.570;2023-07-20T03:26:20;97838.72;;;25.83;37.24
70217;BME280;65567;55.684;37.570;2023-07-20T03:28:45;97833.88;;;26.18;37.09
70217;BME280;65567;55.684;37.570;2023-07-20T03:31:11;97842.69;;;26.71;36.19
70217;BME280;65567;55.684;37.570;2023-07-20T03:33:36;97834.91;;;27.20;35.32
70217;BME280;65567;55.684;37.570;2023-07-20T03:36:02;97829.94;;;27.49;34.38
70217;BME280;65567;55.684;37.570;2023-07-20T03:38:28;97836.06;;;27.93;33.63
70217;BME280;65567;55.684;37.570;2023-07-20T03:40:54;97836.19;;;28.05;33.57
70217;BME280;65567;55.684;37.570;2023-07-20T03:43:21;97845.47;;;28.09;33.43
70217;BME280;65567;55.684;37.570;2023-07-20T03:45:47;97844.91;;;28.00;33.54
70217;BME280;65567;55.684;37.570;2023-07-20T03:48:15;97842.41;;;28.06;33.30
70217;BME280;65567;55.684;37.570;2023-07-20T03:50:47;97836.22;;;28.35;32.93
70217;BME280;65567;55.684;37.570;2023-07-20T03:53:13;97836.63;;;28.70;32.29
70217;BME280;65567;55.684;37.570;2023-07-20T03:55:40;97826.13;;;29.04;31.87
70217;BME280;65567;55.684;37.570;2023-07-20T03:58:07;97829.19;;;29.19;31.03
70217;BME280;65567;55.684;37.570;2023-07-20T04:00:34;97842.75;;;28.89;31.66
70217;BME280;65567;55.684;37.570;2023-07-20T04:03:00;97848.03;;;28.34;32.47
70217;BME280;65567;55.684;37.570;2023-07-20T04:05:25;97847.97;;;27.85;32.99
70217;BME280;65567;55.684;37.570;2023-07-20T04:07:51;97853.81;;;27.39;33.69
70217;BME280;65567;55.684;37.570;2023-07-20T04:10:17;97842.31;;;26.99;34.02
70217;BME280;65567;55.684;37.570;2023-07-20T04:12:47;97842.78;;;26.58;34.88
70217;BME280;65567;55.684;37.570;2023-07-20T04:15:13;97853.44;;;26.32;35.56
70217;BME280;65567;55.684;37.570;2023-07-20T04:17:40;97854.81;;;25.83;36.25
70217;BME280;65567;55.684;37.570;2023-07-20T04:20:06;97851.38;;;25.49;37.02
70217;BME280;65567;55.684;37.570;2023-07-20T04:22:32;97853.03;;;25.43;37.36
70217;BME280;65567;55.684;37.570;2023-07-20T04:24:57;97847.69;;;25.36;37.43
70217;BME280;65567;55.684;37.570;2023-07-20T04:27:23;97848.47;;;25.03;38.14
70217;BME280;65567;55.684;37.570;2023-07-20T04:29:48;97853.41;;;25.20;38.39
70217;BME280;65567;55.684;37.570;2023-07-20T04:32:14;97849.47;;;25.69;37.54
70217;BME280;65567;55.684;37.570;2023-07-20T04:34:39;97856.19;;;26.12;37.22
70217;BME280;65567;55.684;37.570;2023-07-20T04:37:05;97855.28;;;26.77;35.79
70217;BME280;65567;55.684;37.570;2023-07-20T04:39:30;97851.84;;;27.20;35.02
70217;BME280;65567;55.684;37.570;2023-07-20T04:41:56;97853.09;;;27.68;34.29
70217;BME280;65567;55.684;37.570;2023-07-20T04:44:22;97866.63;;;28.06;33.48
70217;BME280;65567;55.684;37.570;2023-07-20T04:46:47;97847.69;;;28.61;33.09
70217;BME280;65567;55.684;37.570;2023-07-20T04:49:13;97851.56;;;29.08;32.05
70217;BME280;65567;55.684;37.570;2023-07-20T04:51:39;97851.19;;;29.46;31.75
70217;BME280;65567;55.684;37.570;2023-07-20T04:54:04;97855.03;;;29.86;30.78
70217;BME280;65567;55.684;37.570;2023-07-20T04:56:30;97859.97;;;30.01;30.64
70217;BME280;65567;55.684;37.570;2023-07-20T04:58:55;97850.97;;;30.24;29.82
70217;BME280;65567;55.684;37.570;2023-07-20T05:01:20;97848.66;;;30.16;29.26
70217;BME280;65567;55.684;37.570;2023-07-20T05:03:46;97851.94;;;30.18;29.71
70217;BME280;65567;55.684;37.570;2023-07-20T05:06:11;97857.13;;;30.08;29.81
70217;BME280;65567;55.684;37.570;2023-07-20T05:08:37;97857.19;;;30.25;29.18
70217;BME280;65567;55.684;37.570;2023-07-20T05:11:04;97852.81;;;30.47;29.15
70217;BME280;65567;55.684;37.570;2023-07-20T05:13:29;97860.63;;;30.61;29.02
70217;BME280;65567;55.684;37.570;2023-07-20T05:15:55;97858.84;;;30.84;28.51
70217;BME280;65567;55.684;37.570;2023-07-20T05:18:20;97852.81;;;30.93;28.35
70217;BME280;65567;55.684;37.570;2023-07-20T05:20:49;97850.28;;;31.04;28.38
70217;BME280;65567;55.684;37.570;2023-07-20T05:23:18;97862.84;;;31.10;28.08
70217;BME280;65567;55.684;37.570;2023-07-20T05:25:45;97853.25;;;31.36;27.72
70217;BME280;65567;55.684;37.570;2023-07-20T05:28:10;97864.13;;;31.58;27.38
70217;BME280;65567;55.684;37.570;2023-07-20T05:30:36;97855.63;;;31.67;27.25
70217;BME280;65567;55.684;37.570;2023-07-20T05:33:01;97867.44;;;32.00;27.13
70217;BME280;65567;55.684;37.570;2023-07-20T05:35:27;97861.53;;;32.03;27.27
70217;BME280;65567;55.684;37.570;2023-07-20T05:37:52;97868.13;;;32.12;26.43
70217;BME280;65567;55.684;37.570;2023-07-20T05:40:18;97868.28;;;32.22;26.26
70217;BME280;65567;55.684;37.570;2023-07-20T05:42:47;97864.63;;;32.34;26.23
70217;BME280;65567;55.684;37.570;2023-07-20T05:45:17;97863.00;;;32.33;26.15
70217;BME280;65567;55.684;37.570;2023-07-20T05:47:43;97858.50;;;32.43;25.90
70217;BME280;65567;55.684;37.570;2023-07-20T05:50:09;97861.59;;;32.52;25.45
70217;BME280;65567;55.684;37.570;2023-07-20T05:52:34;97857.50;;;32.27;25.46
70217;BME280;65567;55.684;37.570;2023-07-20T05:54:59;97854.53;;;32.07;25.69
70217;BME280;65567;55.684;37.570;2023-07-20T05:57:25;97855.53;;;32.18;25.82
70217;BME280;65567;55.684;37.570;2023-07-20T05:59:50;97854.41;;;32.41;25.65
70217;BME280;65567;55.684;37.570;2023-07-20T06:02:16;97863.81;;;32.55;25.12
70217;BME280;65567;55.684;37.570;2023-07-20T06:04:42;97853.88;;;32.66;25.23
70217;BME280;65567;55.684;37.570;2023-07-20T06:07:07;97859.69;;;32.75;25.38
70217;BME280;65567;55.684;37.570;2023-07-20T06:09:33;97854.50;;;33.06;24.77
70217;BME280;65567;55.684;37.570;2023-07-20T06:11:59;97863.22;;;33.08;24.88
70217;BME280;65567;55.684;37.570;2023-07-20T06:14:24;97856.44;;;33.05;24.47
70217;BME280;65567;55.684;37.570;2023-07-20T06:16:50;97865.59;;;32.99;25.03
70217;BME280;65567;55.684;37.570;2023-07-20T06:19:15;97867.00;;;33.07;24.62
70217;BME280;65567;55.684;37.570;2023-07-20T06:21:41;97866.03;;;32.86;24.25
70217;BME280;65567;55.684;37.570;2023-07-20T06:24:07;97863.03;;;32.87;24.59
70217;BME280;65567;55.684;37.570;2023-07-20T06:26:33;97868.66;;;33.08;24.15
70217;BME280;65567;55.684;37.570;2023-07-20T06:29:05;97859.00;;;33.22;24.06
70217;BME280;65567;55.684;37.570;2023-07-20T06:31:32;97873.06;;;33.47;24.19
70217;BME280;65567;55.684;37.570;2023-07-20T06:33:58;97870.13;;;33.53;23.38
70217;BME280;65567;55.684;37.570;2023-07-20T06:36:23;97871.06;;;33.37;23.40
70217;BME280;65567;55.684;37.570;2023-07-20T06:38:51;97863.81;;;33.10;23.80
70217;BME280;65567;55.684;37.570;2023-07-20T06:41:16;97859.50;;;33.14;23.77
70217;BME280;65567;55.684;37.570;2023-07-20T06:43:42;97865.38;;;33.06;24.09
70217;BME280;65567;55.684;37.570;2023-07-20T06:46:07;97858.16;;;33.17;24.56
70217;BME280;65567;55.684;37.570;2023-07-20T06:48:33;97868.75;;;33.18;24.39
70217;BME280;65567;55.684;37.570;2023-07-20T06:50:58;97863.09;;;33.25;23.68
70217;BME280;65567;55.684;37.570;2023-07-20T06:53:24;97856.25;;;33.17;23.55
70217;BME280;65567;55.684;37.570;2023-07-20T06:55:49;97863.31;;;33.18;23.77
70217;BME280;65567;55.684;37.570;2023-07-20T06:58:15;97861.78;;;33.27;24.30
70217;BME280;65567;55.684;37.570;2023-07-20T07:00:40;97853.56;;;33.22;23.98
70217;BME280;65567;55.684;37.570;2023-07-20T07:03:06;97866.75;;;33.08;24.14
70217;BME280;65567;55.684;37.570;2023-07-20T07:05:35;97868.75;;;33.18;23.71
70217;BME280;65567;55.684;37.570;2023-07-20T07:08:02;97867.63;;;33.14;23.86
70217;BME280;65567;55.684;37.570;2023-07-20T07:10:27;97871.13;;;32.82;23.75
70217;BME280;65567;55.684;37.570;2023-07-20T07:12:53;97874.31;;;32.74;24.37
70217;BME280;65567;55.684;37.570;2023-07-20T07:15:18;97880.34;;;32.81;24.10
70217;BME280;65567;55.684;37.570;2023-07-20T07:17:43;97870.00;;;32.78;23.76
70217;BME280;65567;55.684;37.570;2023-07-20T07:20:09;97886.38;;;32.88;23.74
70217;BME280;65567;55.684;37.570;2023-07-20T07:22:34;97877.69;;;32.86;23.21
70217;BME280;65567;55.684;37.570;2023-07-20T07:25:00;97882.28;;;32.86;23.11
70217;BME280;65567;55.684;37.570;2023-07-20T07:27:25;97880.16;;;32.66;23.57
70217;BME280;65567;55.684;37.570;2023-07-20T07:29:51;97886.44;;;32.44;23.46
70217;BME280;65567;55.684;37.570;2023-07-20T07:32:16;97884.16;;;32.36;23.88
70217;BME280;65567;55.684;37.570;2023-07-20T07:34:43;97887.69;;;32.14;23.74
70217;BME280;65567;55.684;37.570;2023-07-20T07:37:11;97881.13;;;32.10;23.46
70217;BME280;65567;55.684;37.570;2023-07-20T07:39:37;97875.19;;;31.91;24.36
70217;BME280;65567;55.684;37.570;2023-07-20T07:42:02;97897.31;;;32.05;23.98
70217;BME280;65567;55.684;37.570;2023-07-20T07:44:28;97895.38;;;32.22;23.44
70217;BME280;65567;55.684;37.570;2023-07-20T07:46:53;97887.19;;;32.17;23.59
70217;BME280;65567;55.684;37.570;2023-07-20T07:49:19;97884.91;;;32.09;24.12
70217;BME280;65567;55.684;37.570;2023-07-20T07:51:44;97885.09;;;32.02;23.55
70217;BME280;65567;55.684;37.570;2023-07-20T07:54:10;97884.25;;;32.02;23.87
70217;BME280;65567;55.684;37.570;2023-07-20T07:56:36;97878.97;;;32.12;23.88
70217;BME280;65567;55.684;37.570;2023-07-20T07:59:01;97882.59;;;32.40;23.76
70217;BME280;65567;55.684;37.570;2023-07-20T08:01:28;97883.53;;;32.73;23.32
70217;BME280;65567;55.684;37.570;2023-07-20T08:03:53;97878.78;;;32.90;23.07
70217;BME280;65567;55.684;37.570;2023-07-20T08:06:19;97873.56;;;32.84;23.16
70217;BME280;65567;55.684;37.570;2023-07-20T08:08:44;97863.66;;;32.67;22.72
70217;BME280;65567;55.684;37.570;2023-07-20T08:11:10;97886.66;;;32.65;23.31
70217;BME280;65567;55.684;37.570;2023-07-20T08:13:36;97887.41;;;32.82;22.78
70217;BME280;65567;55.684;37.570;2023-07-20T08:16:01;97888.88;;;32.95;22.88
70217;BME280;65567;55.684;37.570;2023-07-20T08:18:30;97895.78;;;33.08;22.54
70217;BME280;65567;55.684;37.570;2023-07-20T08:20:56;97883.06;;;33.14;23.28
70217;BME280;65567;55.684;37.570;2023-07-20T08:23:21;97882.84;;;33.20;22.71
70217;BME280;65567;55.684;37.570;2023-07-20T08:25:47;97889.88;;;33.16;22.27
70217;BME280;65567;55.684;37.570;2023-07-20T08:28:14;97898.97;;;33.00;23.38
70217;BME280;65567;55.684;37.570;2023-07-20T08:30:41;97893.25;;;32.96;23.05
70217;BME280;65567;55.684;37.570;2023-07-20T08:33:08;97893.94;;;32.86;22.84
70217;BME280;65567;55.684;37.570;2023-07-20T08:35:34;97901.28;;;32.64;22.29
70217;BME280;65567;55.684;37.570;2023-07-20T08:37:59;97893.00;;;32.48;23.05
70217;BME280;65567;55.684;37.570;2023-07-20T08:40:25;97893.19;;;32.41;23.02
70217;BME280;65567;55.684;37.570;2023-07-20T08:42:50;97883.00;;;32.54;22.45
70217;BME280;65567;55.684;37.570;2023-07-20T08:45:18;97882.78;;;32.55;22.81
70217;BME280;65567;55.684;37.570;2023-07-20T08:47:44;97885.75;;;32.81;23.11
70217;BME280;65567;55.684;37.570;2023-07-20T08:50:11;97878.94;;;33.06;22.79
70217;BME280;65567;55.684;37.570;2023-07-20T08:52:37;97875.94;;;33.30;22.29
70217;BME280;65567;55.684;37.570;2023-07-20T08:55:03;97891.69;;;33.33;22.74
70217;BME280;65567;55.684;37.570;2023-07-20T08:57:32;97884.44;;;33.43;22.62
70217;BME280;65567;55.684;37.570;2023-07-20T08:59:59;97879.25;;;33.42;22.13
70217;BME280;65567;55.684;37.570;2023-07-20T09:02:26;97890.66;;;33.39;22.44
70217;BME280;65567;55.684;37.570;2023-07-20T09:04:52;97880.41;;;33.51;22.33
70217;BME280;65567;55.684;37.570;2023-07-20T09:07:18;97873.34;;;33.50;22.31
70217;BME280;65567;55.684;37.570;2023-07-20T09:09:45;97886.88;;;33.40;22.44
70217;BME280;65567;55.684;37.570;2023-07-20T09:12:16;97889.50;;;33.30;22.67
70217;BME280;65567;55.684;37.570;2023-07-20T09:14:43;97891.47;;;33.12;22.58
70217;BME280;65567;55.684;37.570;2023-07-20T09:17:13;97895.69;;;32.98;22.70
70217;BME280;65567;55.684;37.570;2023-07-20T09:19:39;97903.97;;;33.13;22.84
70217;BME280;65567;55.684;37.570;2023-07-20T09:22:05;97900.59;;;33.01;22.79
70217;BME280;65567;55.684;37.570;2023-07-20T09:24:31;97902.59;;;32.83;22.94
70217;BME280;65567;55.684;37.570;2023-07-20T09:27:01;97898.63;;;32.69;23.42
70217;BME280;65567;55.684;37.570;2023-07-20T09:29:29;97892.34;;;32.41;23.61
70217;BME280;65567;55.684;37.570;2023-07-20T09:32:02;97914.38;;;32.05;24.46
70217;BME280;65567;55.684;37.570;2023-07-20T09:34:29;97897.03;;;31.84;24.92
70217;BME280;65567;55.684;37.570;2023-07-20T09:36:58;97899.44;;;32.03;24.76
70217;BME280;65567;55.684;37.570;2023-07-20T09:39:24;97899.56;;;32.13;24.04
70217;BME280;65567;55.684;37.570;2023-07-20T09:41:51;97901.38;;;32.24;23.55
70217;BME280;65567;55.684;37.570;2023-07-20T09:44:17;97909.13;;;32.38;24.04
70217;BME280;65567;55.684;37.570;2023-07-20T09:46:49;97904.63;;;32.49;23.71
70217;BME280;65567;55.684;37.570;2023-07-20T09:49:17;97908.13;;;32.44;23.87
70217;BME280;65567;55.684;37.570;2023-07-20T09:51:44;97897.69;;;32.58;23.79
70217;BME280;65567;55.684;37.570;2023-07-20T09:54:11;97894.22;;;32.62;23.18
70217;BME280;65567;55.684;37.570;2023-07-20T09:56:38;97896.47;;;32.71;23.63
70217;BME280;65567;55.684;37.570;2023-07-20T09:59:04;97889.22;;;32.49;23.37
70217;BME280;65567;55.684;37.570;2023-07-20T10:01:32;97892.47;;;32.51;23.67
70217;BME280;65567;55.684;37.570;2023-07-20T10:04:02;97897.59;;;32.48;23.44
70217;BME280;65567;55.684;37.570;2023-07-20T10:06:28;97910.38;;;32.52;23.60
70217;BME280;65567;55.684;37.570;2023-07-20T10:09:03;97923.38;;;32.50;24.13
70217;BME280;65567;55.684;37.570;2023-07-20T10:11:35;97931.69;;;32.21;24.55
70217;BME280;65567;55.684;37.570;2023-07-20T10:14:03;97925.34;;;31.76;24.97
70217;BME280;65567;55.684;37.570;2023-07-20T10:16:39;97915.91;;;31.28;26.18
70217;BME280;65567;55.684;37.570;2023-07-20T10:21:51;97913.47;;;30.69;27.41
70217;BME280;65567;55.684;37.570;2023-07-20T10:24:19;97910.91;;;30.21;28.18
70217;BME280;65567;55.684;37.570;2023-07-20T10:26:44;97914.44;;;29.86;29.19
70217;BME280;65567;55.684;37.570;2023-07-20T10:29:10;97913.97;;;29.65;29.84
70217;BME280;65567;55.684;37.570;2023-07-20T10:31:37;97926.50;;;29.60;29.99
70217;BME280;65567;55.684;37.570;2023-07-20T10:34:04;97915.81;;;29.53;29.58
70217;BME280;65567;55.684;37.570;2023-07-20T10:36:30;97909.13;;;29.56;30.81
70217;BME280;65567;55.684;37.570;2023-07-20T10:38:56;97915.00;;;29.53;30.23
70217;BME280;65567;55.684;37.570;2023-07-20T10:41:28;97911.47;;;29.40;30.57
70217;BME280;65567;55.684;37.570;2023-07-20T10:44:04;97915.41;;;29.26;30.85
70217;BME280;65567;55.684;37.570;2023-07-20T10:46:48;97915.03;;;29.22;30.86
70217;BME280;65567;55.684;37.570;2023-07-20T10:49:14;97908.47;;;29.18;30.83
70217;BME280;65567;55.684;37.570;2023-07-20T10:51:48;97910.22;;;29.12;31.06
70217;BME280;65567;55.684;37.570;2023-07-20T10:56:44;97906.31;;;28.96;30.74
70217;BME280;65567;55.684;37.570;2023-07-20T11:01:59;97918.28;;;28.51;30.92
70217;BME280;65567;55.684;37.570;2023-07-20T11:04:40;97923.78;;;28.26;31.65
70217;BME280;65567;55.684;37.570;2023-07-20T11:07:05;97926.63;;;27.88;32.39
70217;BME280;65567;55.684;37.570;2023-07-20T11:09:38;97932.19;;;27.67;32.50
70217;BME280;65567;55.684;37.570;2023-07-20T11:12:14;97950.19;;;27.42;32.92
70217;BME280;65567;55.684;37.570;2023-07-20T11:14:57;97989.47;;;27.11;35.25
70217;BME280;65567;55.684;37.570;2023-07-20T11:17:32;97969.59;;;26.66;37.90
70217;BME280;65567;55.684;37.570;2023-07-20T11:19:59;97975.91;;;26.27;39.07
70217;BME280;65567;55.684;37.570;2023-07-20T11:22:30;97967.09;;;25.86;39.55
70217;BME280;65567;55.684;37.570;2023-07-20T11:24:56;97968.13;;;25.65;40.51
70217;BME280;65567;55.684;37.570;2023-07-20T11:27:23;97967.91;;;25.53;41.40
70217;BME280;65567;55.684;37.570;2023-07-20T11:29:49;97977.59;;;25.61;42.13
70217;BME280;65567;55.684;37.570;2023-07-20T11:32:25;97960.69;;;25.60;42.35
70217;BME280;65567;55.684;37.570;2023-07-20T11:34:50;97952.00;;;25.58;42.49
70217;BME280;65567;55.684;37.570;2023-07-20T11:37:19;97958.63;;;25.62;43.28
70217;BME280;65567;55.684;37.570;2023-07-20T11:39:45;97961.09;;;25.70;43.39
70217;BME280;65567;55.684;37.570;2023-07-20T11:42:11;97959.03;;;25.59;43.63
70217;BME280;65567;55.684;37.570;2023-07-20T11:44:37;97959.03;;;25.59;43.96
70217;BME280;65567;55.684;37.570;2023-07-20T11:47:12;97943.38;;;25.56;42.97
70217;BME280;65567;55.684;37.570;2023-07-20T11:49:40;97944.59;;;25.60;42.60
70217;BME280;65567;55.684;37.570;2023-07-20T11:52:10;97940.47;;;25.64;43.54
70217;BME280;65567;55.684;37.570;2023-07-20T11:54:37;97926.84;;;25.59;42.42
70217;BME280;65567;55.684;37.570;2023-07-20T11:57:04;97938.41;;;25.53;41.27
70217;BME280;65567;55.684;37.570;2023-07-20T11:59:31;97931.00;;;25.42;40.93
70217;BME280;65567;55.684;37.570;2023-07-20T12:01:57;97937.56;;;25.32;40.16
70217;BME280;65567;55.684;37.570;2023-07-20T12:04:23;97950.31;;;25.17;40.01
70217;BME280;65567;55.684;37.570;2023-07-20T12:06:49;97956.06;;;25.14;40.40
70217;BME280;65567;55.684;37.570;2023-07-20T12:09:16;97955.25;;;25.06;41.56
70217;BME280;65567;55.684;37.570;2023-07-20T12:11:43;97954.03;;;25.16;41.94
70217;BME280;65567;55.684;37.570;2023-07-20T12:14:10;97958.16;;;25.25;42.46
70217;BME280;65567;55.684;37.570;2023-07-20T12:16:37;97962.28;;;25.34;41.95
70217;BME280;65567;55.684;37.570;2023-07-20T12:19:11;97967.91;;;25.39;41.82
70217;BME280;65567;55.684;37.570;2023-07-20T12:21:38;97965.22;;;25.39;41.69
70217;BME280;65567;55.684;37.570;2023-07-20T12:24:05;97970.19;;;25.43;41.26
70217;BME280;65567;55.684;37.570;2023-07-20T12:26:32;97970.78;;;25.51;41.54
70217;BME280;65567;55.684;37.570;2023-07-20T12:28:58;97969.75;;;25.52;40.70
70217;BME280;65567;55.684;37.570;2023-07-20T12:31:25;97969.13;;;25.44;41.38
70217;BME280;65567;55.684;37.570;2023-07-20T12:33:51;97956.16;;;25.40;39.59
70217;BME280;65567;55.684;37.570;2023-07-20T12:36:17;97972.19;;;25.34;39.06
70217;BME280;65567;55.684;37.570;2023-07-20T12:38:43;97956.09;;;25.20;38.64
70217;BME280;65567;55.684;37.570;2023-07-20T12:41:11;97962.66;;;25.11;38.56
70217;BME280;65567;55.684;37.570;2023-07-20T12:43:42;97955.84;;;25.08;38.43
70217;BME280;65567;55.684;37.570;2023-07-20T12:46:10;97945.16;;;25.15;38.48
70217;BME280;65567;55.684;37.570;2023-07-20T12:48:36;97952.78;;;25.25;38.46
70217;BME280;65567;55.684;37.570;2023-07-20T12:51:03;97954.47;;;25.33;38.48
70217;BME280;65567;55.684;37.570;2023-07-20T12:53:29;97945.63;;;25.46;38.14
70217;BME280;65567;55.684;37.570;2023-07-20T12:55:54;97945.84;;;25.51;38.01
70217;BME280;65567;55.684;37.570;2023-07-20T12:58:20;97954.91;;;25.77;37.32
70217;BME280;65567;55.684;37.570;2023-07-20T13:00:45;97957.38;;;25.85;37.36
70217;BME280;65567;55.684;37.570;2023-07-20T13:03:11;97945.63;;;25.86;37.25